Liverpool, New York
Current Conditions -  °F | °C
As of 12:54 AM on Wednesday 28 Jan 2015 (Local Time) from KSYR Reporting Station
Broken Clouds Broken Clouds  
Wind Chill: -2°   Ceiling: 26000
Heat Index:   Visibility: 10mi
Dew Point: -1°   Wind: 5mph
Humidity: 70%   Direction: 260°W
Pressure: 30.04"   Gusts: NA
Location:  43.11°N, 76.21°W
Report Text: KSYR 280554Z 26004KT 10SM SCT190 BKN260 M14/M18 A3004 RMK AO2 SLP177 4/002 T11391183 11117 21144 53003 $
Loading
Personal Weather Stations






























Interactive Weather Map New forecast layout! Learn more

10-Day Weather Forecast

Advertisements
Track Severe Weather on mobile